Seaempress — 9HFA7 — position and weather

sailwx.info

Track history (hours):
 
Tides and Currents Weather Stations Pressure Air Temp Water Temp Dewpoint Dewpoint Depression Visibility Wind Speed Wind Dir Waves Ship Positions

Seaempress

Last reported at 2018-Feb-20 11:31 UTC. Time now 2018-Feb-20 11:56 UTC.
Position N 51°56' E 004°12'.

Length 182 m; draft 10.7 m.

Type: Ship (hazmat cat A). MMSI: 215171000.

Date/timePositionNaut miles runAvg speedWind from/ knotsBaromVisibWave heightAir tempDewpointWater temp
2018-Feb-20 11:31N 51°56' E 004°12'4 7.3
2018-Feb-20 11:00N 51°59' E 004°07'5 9.7
2018-Feb-20 10:31N 51°60' E 003°59'611.2
2018-Feb-20 10:01N 51°60' E 003°50'510.4
2018-Feb-20 09:31N 51°58' E 003°42'612.1
2018-Feb-20 08:59N 51°56' E 003°33'2 1.3
2018-Feb-20 07:39N 51°55' E 003°30'0 0.1
2018-Feb-20 07:15N 51°55' E 003°31'0 0.0
2018-Feb-20 07:00N 51°55' E 003°31'0 0.0
2018-Feb-20 03:51N 51°55' E 003°31'0 0.0
2018-Feb-20 03:30N 51°55' E 003°31'0 0.0
2018-Feb-20 03:00N 51°55' E 003°31'0 0.3
2018-Feb-20 02:30N 51°55' E 003°30'0 0.0
2018-Feb-20 01:57N 51°55' E 003°30'0 0.0
2018-Feb-20 01:30N 51°55' E 003°30'0 0.0
2018-Feb-20 00:57N 51°55' E 003°30'0 0.0
2018-Feb-20 00:24N 51°55' E 003°30'32 1.8
2018-Feb-19 06:25N 51°47' E 002°39'513.3
2018-Feb-19 06:00N 51°43' E 002°33'713.7
2018-Feb-19 05:30N 51°38' E 002°26'714.0
2018-Feb-19 05:00N 51°33' E 002°19'714.3
2018-Feb-19 04:30N 51°27' E 002°11'713.6
2018-Feb-19 04:00N 51°21' E 002°06'713.7
2018-Feb-19 03:30N 51°14' E 002°04'714.8
2018-Feb-19 03:00N 51°11' E 001°54'815.3
2018-Feb-19 02:30N 51°06' E 001°44'815.9
2018-Feb-19 02:00N 51°01' E 001°35'815.6
2018-Feb-19 01:30N 50°55' E 001°27'815.0
2018-Feb-19 01:00N 50°48' E 001°23'2613.5
2018-Feb-18 23:04N 50°29' E 000°54'214.2
2018-Feb-18 22:56N 50°28' E 000°51'1714.5
2018-Feb-18 21:46N 50°24' E 000°26'514.6
2018-Feb-18 21:28N 50°23' E 000°19'714.1
2018-Feb-18 20:58N 50°21' E 000°08'613.7
2018-Feb-18 20:30N 50°20' W 000°01'813.1
2018-Feb-18 19:53N 50°17' W 000°14'2411.9
2018-Feb-18 17:53N 50°11' W 000°50'410.5
2018-Feb-18 17:30N 50°10' W 000°55'5 9.9
2018-Feb-18 17:00N 50°09' W 001°03'5 9.4
2018-Feb-18 16:30N 50°08' W 001°10'5 9.2
2018-Feb-18 16:00N 50°06' W 001°17'4 8.7
2018-Feb-18 15:30N 50°05' W 001°23'4 8.9
2018-Feb-18 15:00N 50°04' W 001°30'4 9.1
2018-Feb-18 14:31N 50°03' W 001°37'5 9.4
2018-Feb-18 14:00N 50°02' W 001°44'510.2
2018-Feb-18 13:30N 50°00' W 001°52'611.1
2018-Feb-18 13:00N 49°58' W 001°60'611.9
2018-Feb-18 12:30N 49°57' W 002°09'1213.0
2018-Feb-18 11:35N 49°54' W 002°27'213.4
2018-Feb-18 11:28N 49°54' W 002°29'713.9
2018-Feb-18 10:57N 49°52' W 002°40'614.1
2018-Feb-18 10:31N 49°50' W 002°49'1014.3
2018-Feb-18 09:49N 49°46' W 003°03'413.7
2018-Feb-18 09:30N 49°44' W 003°09'713.8
2018-Feb-18 08:59N 49°40' W 003°19'7914.0
2018-Feb-18 03:22N 49°00' W 005°03'1013.2
2018-Feb-18 02:35N 48°55' W 005°17'213.2
2018-Feb-18 02:28N 48°54' W 005°19'912.5
2018-Feb-18 01:47N 48°50' W 005°30'412.1
2018-Feb-18 01:27N 48°48' W 005°35'511.7
2018-Feb-18 01:00N 48°44' W 005°40'611.6
2018-Feb-18 00:30N 48°39' W 005°44'56811.3
2018-Feb-15 22:06N 39°41' W 009°57'111.3
2018-Feb-15 22:00N 39°40' W 009°57'611.3
2018-Feb-15 21:30N 39°34' W 009°57'611.5
2018-Feb-15 21:00N 39°29' W 009°57'611.5
2018-Feb-15 20:30N 39°23' W 009°57'611.3
2018-Feb-15 20:00N 39°17' W 009°57'611.5
2018-Feb-15 19:30N 39°11' W 009°57'611.4
2018-Feb-15 19:00N 39°06' W 009°57'611.3
2018-Feb-15 18:30N 38°60' W 009°57'611.5
2018-Feb-15 18:00N 38°54' W 009°57'611.6
2018-Feb-15 17:30N 38°48' W 009°57'611.8
2018-Feb-15 17:00N 38°43' W 009°57'611.6
2018-Feb-15 16:30N 38°37' W 009°55'612.0
2018-Feb-15 16:00N 38°31' W 009°53'611.8
2018-Feb-15 15:30N 38°25' W 009°52'611.6
2018-Feb-15 15:00N 38°20' W 009°50'611.8
2018-Feb-15 14:30N 38°14' W 009°48'611.6
2018-Feb-15 14:00N 38°08' W 009°45'611.4
2018-Feb-15 13:30N 38°03' W 009°45'23610.2
2018-Feb-14 14:28N 35°58' W 005°34'510.5
2018-Feb-14 14:00N 35°60' W 005°29'5 9.9
2018-Feb-14 13:30N 36°02' W 005°24'510.4
2018-Feb-14 13:00N 36°07' W 005°23'3 5.8
2018-Feb-14 12:26N 36°11' W 005°24'0 0.0
2018-Feb-14 11:44N 36°11' W 005°24'0 0.0
2018-Feb-14 11:29N 36°11' W 005°24'0 0.0
2018-Feb-14 10:56N 36°11' W 005°24'0 0.0
2018-Feb-14 10:26N 36°11' W 005°24'0 0.0
2018-Feb-14 09:59N 36°11' W 005°24'0 0.0
2018-Feb-14 09:26N 36°11' W 005°24'0 0.0
2018-Feb-14 08:59N 36°11' W 005°24'0 0.0
2018-Feb-14 08:29N 36°11' W 005°24'0 0.0
2018-Feb-14 07:08N 36°11' W 005°24'0 0.0
2018-Feb-14 06:59N 36°11' W 005°24'0 0.0
2018-Feb-14 06:29N 36°11' W 005°24'0 0.0
2018-Feb-14 05:59N 36°11' W 005°24'0 0.0
2018-Feb-14 05:29N 36°11' W 005°24'0 0.0
2018-Feb-14 04:59N 36°11' W 005°24'0 0.0
2018-Feb-14 04:26N 36°11' W 005°24'0 0.0
2018-Feb-14 03:59N 36°11' W 005°24'0 0.0
2018-Feb-14 00:41N 36°11' W 005°24'0 0.0
2018-Feb-14 00:29N 36°11' W 005°24'0 0.0
2018-Feb-13 23:11N 36°11' W 005°24'0 0.0
2018-Feb-13 22:59N 36°11' W 005°24'0 0.0
2018-Feb-13 22:29N 36°11' W 005°24'0 0.0
2018-Feb-13 21:59N 36°11' W 005°24'0 0.0
2018-Feb-13 21:26N 36°11' W 005°24'0 0.0
2018-Feb-13 20:59N 36°11' W 005°24'0 0.0
2018-Feb-13 20:26N 36°11' W 005°24'0 0.0
2018-Feb-13 09:49N 36°11' W 005°24'0 0.0
2018-Feb-13 09:28N 36°11' W 005°24'0 0.0
2018-Feb-13 08:55N 36°11' W 005°24'0 0.0
2018-Feb-13 08:13N 36°11' W 005°24'0 0.0
2018-Feb-13 07:55N 36°11' W 005°24'0 0.0
2018-Feb-13 07:28N 36°11' W 005°24'0 0.0
2018-Feb-13 06:58N 36°11' W 005°24'0 0.0
2018-Feb-13 06:25N 36°11' W 005°24'0 0.0
2018-Feb-13 05:58N 36°11' W 005°24'0 0.0
2018-Feb-13 05:28N 36°11' W 005°24'0 0.0
2018-Feb-13 04:58N 36°11' W 005°24'0 0.0
2018-Feb-13 04:28N 36°11' W 005°24'0 0.1
2018-Feb-13 03:58N 36°11' W 005°24'0 0.8
2018-Feb-13 03:28N 36°10' W 005°24'0 0.0
2018-Feb-13 02:58N 36°10' W 005°24'0 0.0
2018-Feb-13 02:28N 36°10' W 005°24'0 0.1
2018-Feb-13 01:58N 36°10' W 005°24'0 0.0
2018-Feb-13 01:28N 36°10' W 005°24'0 0.0
2018-Feb-13 00:58N 36°10' W 005°24'0 0.0
2018-Feb-13 00:28N 36°10' W 005°24'0 0.1
2018-Feb-12 23:58N 36°10' W 005°24'0 0.1
2018-Feb-12 23:28N 36°10' W 005°24'0 0.0
2018-Feb-12 22:58N 36°10' W 005°24'0 0.0
2018-Feb-12 22:22N 36°10' W 005°24'0 0.0
2018-Feb-12 21:58N 36°10' W 005°24'0 0.0
2018-Feb-12 21:28N 36°10' W 005°24'0 0.0
2018-Feb-12 20:58N 36°10' W 005°24'0 0.0
2018-Feb-12 19:46N 36°10' W 005°24'0 0.0
2018-Feb-12 19:25N 36°10' W 005°24'0 0.0
2018-Feb-12 13:46N 36°10' W 005°24'0 0.0
2018-Feb-12 13:19N 36°10' W 005°24'0 0.1
2018-Feb-12 12:58N 36°10' W 005°24'0 0.0
2018-Feb-12 12:22N 36°10' W 005°24'0 0.0
2018-Feb-12 11:43N 36°10' W 005°24'0 0.1
2018-Feb-12 11:25N 36°10' W 005°24'0 0.1
2018-Feb-12 10:55N 36°10' W 005°24'0 0.0
2018-Feb-12 10:25N 36°10' W 005°24'0 0.0
2018-Feb-12 09:55N 36°10' W 005°24'0 0.0
2018-Feb-12 09:22N 36°10' W 005°24'0 0.0
2018-Feb-12 08:58N 36°10' W 005°24'0 0.0
2018-Feb-12 08:28N 36°10' W 005°24'0 0.0
2018-Feb-12 06:13N 36°10' W 005°24'0 0.0
2018-Feb-12 06:01N 36°10' W 005°24'0 0.0
2018-Feb-12 05:25N 36°10' W 005°24'0 0.1
2018-Feb-12 05:01N 36°10' W 005°24'0 0.1
2018-Feb-12 04:24N 36°10' W 005°24'0 0.0
2018-Feb-12 04:00N 36°10' W 005°24'0 0.0
2018-Feb-12 03:30N 36°10' W 005°24'0 0.0
2018-Feb-12 03:00N 36°10' W 005°24'0 0.0
2018-Feb-12 02:30N 36°10' W 005°24'0 0.1
2018-Feb-12 01:54N 36°10' W 005°24'0 0.0
2018-Feb-12 01:24N 36°10' W 005°24'0 0.1
2018-Feb-12 01:00N 36°10' W 005°24'0 0.0
2018-Feb-12 00:30N 36°10' W 005°24'0 0.0
2018-Feb-12 00:00N 36°10' W 005°24'0 0.0
2018-Feb-11 23:30N 36°10' W 005°24'0 0.1
2018-Feb-11 23:00N 36°10' W 005°24'0 0.1
2018-Feb-11 22:24N 36°10' W 005°24'0 0.0
2018-Feb-11 22:00N 36°10' W 005°24'0 0.0
2018-Feb-11 21:30N 36°10' W 005°24'0 0.1
2018-Feb-11 20:54N 36°10' W 005°24'0 0.1
2018-Feb-11 20:30N 36°10' W 005°24'0 0.0
2018-Feb-11 20:00N 36°10' W 005°24'0 0.1
2018-Feb-11 19:30N 36°10' W 005°24'0 0.1
2018-Feb-11 19:00N 36°10' W 005°24'0 0.1
2018-Feb-11 18:30N 36°10' W 005°24'0 0.0
2018-Feb-11 18:00N 36°10' W 005°24'0 0.0
2018-Feb-11 17:30N 36°10' W 005°24'0 0.0
2018-Feb-11 17:00N 36°10' W 005°24'0 0.0
2018-Feb-11 16:30N 36°10' W 005°24'0 0.0
2018-Feb-11 16:00N 36°10' W 005°24'0 0.0
2018-Feb-11 15:30N 36°10' W 005°24'0 0.0
2018-Feb-11 15:00N 36°10' W 005°24'0 0.0
2018-Feb-11 14:27N 36°10' W 005°24'0 0.0
2018-Feb-11 13:54N 36°10' W 005°24'0 0.0
2018-Feb-11 13:30N 36°10' W 005°24'0 0.0
2018-Feb-11 12:57N 36°10' W 005°24'0 0.1
2018-Feb-11 12:30N 36°10' W 005°24'0 0.3
2018-Feb-11 11:57N 36°10' W 005°24'0 0.2
2018-Feb-11 11:30N 36°10' W 005°24'0 0.4
2018-Feb-11 10:59N 36°11' W 005°24'0 0.0
2018-Feb-11 10:26N 36°11' W 005°24'0 0.0
2018-Feb-11 09:59N 36°11' W 005°24'0 0.0
2018-Feb-11 09:29N 36°11' W 005°24'0 0.0
2018-Feb-11 08:59N 36°11' W 005°24'0 0.0
2018-Feb-11 08:29N 36°11' W 005°24'0 0.0
2018-Feb-11 07:59N 36°11' W 005°24'0 0.0
2018-Feb-11 07:29N 36°11' W 005°24'0 0.0
2018-Feb-11 06:50N 36°11' W 005°24'0 0.0
2018-Feb-11 06:29N 36°11' W 005°24'0 0.0
2018-Feb-11 05:59N 36°11' W 005°24'0 0.0
2018-Feb-11 05:29N 36°11' W 005°24'0 0.0
2018-Feb-11 04:59N 36°11' W 005°24'0 0.0
2018-Feb-11 04:29N 36°11' W 005°24'0 0.0
2018-Feb-11 03:59N 36°11' W 005°24'0 0.0
2018-Feb-11 03:29N 36°11' W 005°24'0 0.0
2018-Feb-11 02:59N 36°11' W 005°24'0 0.0
2018-Feb-11 02:20N 36°11' W 005°24'0 0.0
2018-Feb-11 01:59N 36°11' W 005°24'0 0.0
2018-Feb-11 01:29N 36°11' W 005°24'0 0.0
2018-Feb-11 00:59N 36°11' W 005°24'0 0.0
2018-Feb-11 00:29N 36°11' W 005°24'0 0.0
2018-Feb-10 23:29N 36°11' W 005°24'0 0.0
2018-Feb-10 22:53N 36°11' W 005°24'0 0.0
2018-Feb-10 22:29N 36°11' W 005°24'0 0.0
2018-Feb-10 21:58N 36°11' W 005°24'0 0.0
2018-Feb-10 21:28N 36°11' W 005°24'0 0.0
2018-Feb-10 20:58N 36°11' W 005°24'0 0.0
2018-Feb-10 20:10N 36°11' W 005°24'0 0.0
2018-Feb-10 19:55N 36°11' W 005°24'0 0.0
2018-Feb-10 18:34N 36°11' W 005°24'0 0.0
2018-Feb-10 18:28N 36°11' W 005°24'0 0.0
2018-Feb-10 17:28N 36°11' W 005°24'0 0.0
2018-Feb-10 16:49N 36°11' W 005°24'0 0.0
2018-Feb-10 16:28N 36°11' W 005°24'0 0.0
2018-Feb-10 15:58N 36°11' W 005°24'0 0.0
2018-Feb-10 15:28N 36°11' W 005°24'0 0.0
2018-Feb-10 14:55N 36°11' W 005°24'0 0.0
2018-Feb-10 14:28N 36°11' W 005°24'0 0.0
2018-Feb-10 13:58N 36°11' W 005°24'0 0.0
2018-Feb-10 13:28N 36°11' W 005°24'0 0.0
2018-Feb-10 12:55N 36°11' W 005°24'0 0.0
2018-Feb-10 12:28N 36°11' W 005°24'0 0.0
2018-Feb-10 11:58N 36°11' W 005°24'  
Track history (hours):
 
Tides and Currents Weather Stations Pressure Air Temp Water Temp Dewpoint Dewpoint Depression Visibility Wind Speed Wind Dir Waves Ship Positions

Seaempress

Last reported at 2018-Feb-20 11:31 UTC. Time now 2018-Feb-20 11:56 UTC.
Position N 51°56' E 004°12'.

Length 182 m; draft 10.7 m.

Type: Ship (hazmat cat A). MMSI: 215171000.

Date/timePositionNaut miles runAvg speedWind from/ knotsBaromVisibWave heightAir tempDewpointWater temp
2018-Feb-20 11:31N 51°56' E 004°12'4 7.3
2018-Feb-20 11:00N 51°59' E 004°07'5 9.7
2018-Feb-20 10:31N 51°60' E 003°59'611.2
2018-Feb-20 10:01N 51°60' E 003°50'510.4
2018-Feb-20 09:31N 51°58' E 003°42'612.1
2018-Feb-20 08:59N 51°56' E 003°33'2 1.3
2018-Feb-20 07:39N 51°55' E 003°30'0 0.1
2018-Feb-20 07:15N 51°55' E 003°31'0 0.0
2018-Feb-20 07:00N 51°55' E 003°31'0 0.0
2018-Feb-20 03:51N 51°55' E 003°31'0 0.0
2018-Feb-20 03:30N 51°55' E 003°31'0 0.0
2018-Feb-20 03:00N 51°55' E 003°31'0 0.3
2018-Feb-20 02:30N 51°55' E 003°30'0 0.0
2018-Feb-20 01:57N 51°55' E 003°30'0 0.0
2018-Feb-20 01:30N 51°55' E 003°30'0 0.0
2018-Feb-20 00:57N 51°55' E 003°30'0 0.0
2018-Feb-20 00:24N 51°55' E 003°30'32 1.8
2018-Feb-19 06:25N 51°47' E 002°39'513.3
2018-Feb-19 06:00N 51°43' E 002°33'713.7
2018-Feb-19 05:30N 51°38' E 002°26'714.0
2018-Feb-19 05:00N 51°33' E 002°19'714.3
2018-Feb-19 04:30N 51°27' E 002°11'713.6
2018-Feb-19 04:00N 51°21' E 002°06'713.7
2018-Feb-19 03:30N 51°14' E 002°04'714.8
2018-Feb-19 03:00N 51°11' E 001°54'815.3
2018-Feb-19 02:30N 51°06' E 001°44'815.9
2018-Feb-19 02:00N 51°01' E 001°35'815.6
2018-Feb-19 01:30N 50°55' E 001°27'815.0
2018-Feb-19 01:00N 50°48' E 001°23'2613.5
2018-Feb-18 23:04N 50°29' E 000°54'214.2
2018-Feb-18 22:56N 50°28' E 000°51'1714.5
2018-Feb-18 21:46N 50°24' E 000°26'514.6
2018-Feb-18 21:28N 50°23' E 000°19'714.1
2018-Feb-18 20:58N 50°21' E 000°08'613.7
2018-Feb-18 20:30N 50°20' W 000°01'813.1
2018-Feb-18 19:53N 50°17' W 000°14'2411.9
2018-Feb-18 17:53N 50°11' W 000°50'410.5
2018-Feb-18 17:30N 50°10' W 000°55'5 9.9
2018-Feb-18 17:00N 50°09' W 001°03'5 9.4
2018-Feb-18 16:30N 50°08' W 001°10'5 9.2
2018-Feb-18 16:00N 50°06' W 001°17'4 8.7
2018-Feb-18 15:30N 50°05' W 001°23'4 8.9
2018-Feb-18 15:00N 50°04' W 001°30'4 9.1
2018-Feb-18 14:31N 50°03' W 001°37'5 9.4
2018-Feb-18 14:00N 50°02' W 001°44'510.2
2018-Feb-18 13:30N 50°00' W 001°52'611.1
2018-Feb-18 13:00N 49°58' W 001°60'611.9
2018-Feb-18 12:30N 49°57' W 002°09'1213.0
2018-Feb-18 11:35N 49°54' W 002°27'213.4
2018-Feb-18 11:28N 49°54' W 002°29'713.9
2018-Feb-18 10:57N 49°52' W 002°40'614.1
2018-Feb-18 10:31N 49°50' W 002°49'1014.3
2018-Feb-18 09:49N 49°46' W 003°03'413.7
2018-Feb-18 09:30N 49°44' W 003°09'713.8
2018-Feb-18 08:59N 49°40' W 003°19'7914.0
2018-Feb-18 03:22N 49°00' W 005°03'1013.2
2018-Feb-18 02:35N 48°55' W 005°17'213.2
2018-Feb-18 02:28N 48°54' W 005°19'912.5
2018-Feb-18 01:47N 48°50' W 005°30'412.1
2018-Feb-18 01:27N 48°48' W 005°35'511.7
2018-Feb-18 01:00N 48°44' W 005°40'611.6
2018-Feb-18 00:30N 48°39' W 005°44'56811.3
2018-Feb-15 22:06N 39°41' W 009°57'111.3
2018-Feb-15 22:00N 39°40' W 009°57'611.3
2018-Feb-15 21:30N 39°34' W 009°57'611.5
2018-Feb-15 21:00N 39°29' W 009°57'611.5
2018-Feb-15 20:30N 39°23' W 009°57'611.3
2018-Feb-15 20:00N 39°17' W 009°57'611.5
2018-Feb-15 19:30N 39°11' W 009°57'611.4
2018-Feb-15 19:00N 39°06' W 009°57'611.3
2018-Feb-15 18:30N 38°60' W 009°57'611.5
2018-Feb-15 18:00N 38°54' W 009°57'611.6
2018-Feb-15 17:30N 38°48' W 009°57'611.8
2018-Feb-15 17:00N 38°43' W 009°57'611.6
2018-Feb-15 16:30N 38°37' W 009°55'612.0
2018-Feb-15 16:00N 38°31' W 009°53'611.8
2018-Feb-15 15:30N 38°25' W 009°52'611.6
2018-Feb-15 15:00N 38°20' W 009°50'611.8
2018-Feb-15 14:30N 38°14' W 009°48'611.6
2018-Feb-15 14:00N 38°08' W 009°45'611.4
2018-Feb-15 13:30N 38°03' W 009°45'23610.2
2018-Feb-14 14:28N 35°58' W 005°34'510.5
2018-Feb-14 14:00N 35°60' W 005°29'5 9.9
2018-Feb-14 13:30N 36°02' W 005°24'510.4
2018-Feb-14 13:00N 36°07' W 005°23'3 5.8
2018-Feb-14 12:26N 36°11' W 005°24'0 0.0
2018-Feb-14 11:44N 36°11' W 005°24'0 0.0
2018-Feb-14 11:29N 36°11' W 005°24'0 0.0
2018-Feb-14 10:56N 36°11' W 005°24'0 0.0
2018-Feb-14 10:26N 36°11' W 005°24'0 0.0
2018-Feb-14 09:59N 36°11' W 005°24'0 0.0
2018-Feb-14 09:26N 36°11' W 005°24'0 0.0
2018-Feb-14 08:59N 36°11' W 005°24'0 0.0
2018-Feb-14 08:29N 36°11' W 005°24'0 0.0
2018-Feb-14 07:08N 36°11' W 005°24'0 0.0
2018-Feb-14 06:59N 36°11' W 005°24'0 0.0
2018-Feb-14 06:29N 36°11' W 005°24'0 0.0
2018-Feb-14 05:59N 36°11' W 005°24'0 0.0
2018-Feb-14 05:29N 36°11' W 005°24'0 0.0
2018-Feb-14 04:59N 36°11' W 005°24'0 0.0
2018-Feb-14 04:26N 36°11' W 005°24'0 0.0
2018-Feb-14 03:59N 36°11' W 005°24'0 0.0
2018-Feb-14 00:41N 36°11' W 005°24'0 0.0
2018-Feb-14 00:29N 36°11' W 005°24'0 0.0
2018-Feb-13 23:11N 36°11' W 005°24'0 0.0
2018-Feb-13 22:59N 36°11' W 005°24'0 0.0
2018-Feb-13 22:29N 36°11' W 005°24'0 0.0
2018-Feb-13 21:59N 36°11' W 005°24'0 0.0
2018-Feb-13 21:26N 36°11' W 005°24'0 0.0
2018-Feb-13 20:59N 36°11' W 005°24'0 0.0
2018-Feb-13 20:26N 36°11' W 005°24'0 0.0
2018-Feb-13 09:49N 36°11' W 005°24'0 0.0
2018-Feb-13 09:28N 36°11' W 005°24'0 0.0
2018-Feb-13 08:55N 36°11' W 005°24'0 0.0
2018-Feb-13 08:13N 36°11' W 005°24'0 0.0
2018-Feb-13 07:55N 36°11' W 005°24'0 0.0
2018-Feb-13 07:28N 36°11' W 005°24'0 0.0
2018-Feb-13 06:58N 36°11' W 005°24'0 0.0
2018-Feb-13 06:25N 36°11' W 005°24'0 0.0
2018-Feb-13 05:58N 36°11' W 005°24'0 0.0
2018-Feb-13 05:28N 36°11' W 005°24'0 0.0
2018-Feb-13 04:58N 36°11' W 005°24'0 0.0
2018-Feb-13 04:28N 36°11' W 005°24'0 0.1
2018-Feb-13 03:58N 36°11' W 005°24'0 0.8
2018-Feb-13 03:28N 36°10' W 005°24'0 0.0
2018-Feb-13 02:58N 36°10' W 005°24'0 0.0
2018-Feb-13 02:28N 36°10' W 005°24'0 0.1
2018-Feb-13 01:58N 36°10' W 005°24'0 0.0
2018-Feb-13 01:28N 36°10' W 005°24'0 0.0
2018-Feb-13 00:58N 36°10' W 005°24'0 0.0
2018-Feb-13 00:28N 36°10' W 005°24'0 0.1
2018-Feb-12 23:58N 36°10' W 005°24'0 0.1
2018-Feb-12 23:28N 36°10' W 005°24'0 0.0
2018-Feb-12 22:58N 36°10' W 005°24'0 0.0
2018-Feb-12 22:22N 36°10' W 005°24'0 0.0
2018-Feb-12 21:58N 36°10' W 005°24'0 0.0
2018-Feb-12 21:28N 36°10' W 005°24'0 0.0
2018-Feb-12 20:58N 36°10' W 005°24'0 0.0
2018-Feb-12 19:46N 36°10' W 005°24'0 0.0
2018-Feb-12 19:25N 36°10' W 005°24'0 0.0
2018-Feb-12 13:46N 36°10' W 005°24'0 0.0
2018-Feb-12 13:19N 36°10' W 005°24'0 0.1
2018-Feb-12 12:58N 36°10' W 005°24'0 0.0
2018-Feb-12 12:22N 36°10' W 005°24'0 0.0
2018-Feb-12 11:43N 36°10' W 005°24'0 0.1
2018-Feb-12 11:25N 36°10' W 005°24'0 0.1
2018-Feb-12 10:55N 36°10' W 005°24'0 0.0
2018-Feb-12 10:25N 36°10' W 005°24'0 0.0
2018-Feb-12 09:55N 36°10' W 005°24'0 0.0
2018-Feb-12 09:22N 36°10' W 005°24'0 0.0
2018-Feb-12 08:58N 36°10' W 005°24'0 0.0
2018-Feb-12 08:28N 36°10' W 005°24'0 0.0
2018-Feb-12 06:13N 36°10' W 005°24'0 0.0
2018-Feb-12 06:01N 36°10' W 005°24'0 0.0
2018-Feb-12 05:25N 36°10' W 005°24'0 0.1
2018-Feb-12 05:01N 36°10' W 005°24'0 0.1
2018-Feb-12 04:24N 36°10' W 005°24'0 0.0
2018-Feb-12 04:00N 36°10' W 005°24'0 0.0
2018-Feb-12 03:30N 36°10' W 005°24'0 0.0
2018-Feb-12 03:00N 36°10' W 005°24'0 0.0
2018-Feb-12 02:30N 36°10' W 005°24'0 0.1
2018-Feb-12 01:54N 36°10' W 005°24'0 0.0
2018-Feb-12 01:24N 36°10' W 005°24'0 0.1
2018-Feb-12 01:00N 36°10' W 005°24'0 0.0
2018-Feb-12 00:30N 36°10' W 005°24'0 0.0
2018-Feb-12 00:00N 36°10' W 005°24'0 0.0
2018-Feb-11 23:30N 36°10' W 005°24'0 0.1
2018-Feb-11 23:00N 36°10' W 005°24'0 0.1
2018-Feb-11 22:24N 36°10' W 005°24'0 0.0
2018-Feb-11 22:00N 36°10' W 005°24'0 0.0
2018-Feb-11 21:30N 36°10' W 005°24'0 0.1
2018-Feb-11 20:54N 36°10' W 005°24'0 0.1
2018-Feb-11 20:30N 36°10' W 005°24'0 0.0
2018-Feb-11 20:00N 36°10' W 005°24'0 0.1
2018-Feb-11 19:30N 36°10' W 005°24'0 0.1
2018-Feb-11 19:00N 36°10' W 005°24'0 0.1
2018-Feb-11 18:30N 36°10' W 005°24'0 0.0
2018-Feb-11 18:00N 36°10' W 005°24'0 0.0
2018-Feb-11 17:30N 36°10' W 005°24'0 0.0
2018-Feb-11 17:00N 36°10' W 005°24'0 0.0
2018-Feb-11 16:30N 36°10' W 005°24'0 0.0
2018-Feb-11 16:00N 36°10' W 005°24'0 0.0
2018-Feb-11 15:30N 36°10' W 005°24'0 0.0
2018-Feb-11 15:00N 36°10' W 005°24'0 0.0
2018-Feb-11 14:27N 36°10' W 005°24'0 0.0
2018-Feb-11 13:54N 36°10' W 005°24'0 0.0
2018-Feb-11 13:30N 36°10' W 005°24'0 0.0
2018-Feb-11 12:57N 36°10' W 005°24'0 0.1
2018-Feb-11 12:30N 36°10' W 005°24'0 0.3
2018-Feb-11 11:57N 36°10' W 005°24'0 0.2
2018-Feb-11 11:30N 36°10' W 005°24'0 0.4
2018-Feb-11 10:59N 36°11' W 005°24'0 0.0
2018-Feb-11 10:26N 36°11' W 005°24'0 0.0
2018-Feb-11 09:59N 36°11' W 005°24'0 0.0
2018-Feb-11 09:29N 36°11' W 005°24'0 0.0
2018-Feb-11 08:59N 36°11' W 005°24'0 0.0
2018-Feb-11 08:29N 36°11' W 005°24'0 0.0
2018-Feb-11 07:59N 36°11' W 005°24'0 0.0
2018-Feb-11 07:29N 36°11' W 005°24'0 0.0
2018-Feb-11 06:50N 36°11' W 005°24'0 0.0
2018-Feb-11 06:29N 36°11' W 005°24'0 0.0
2018-Feb-11 05:59N 36°11' W 005°24'0 0.0
2018-Feb-11 05:29N 36°11' W 005°24'0 0.0
2018-Feb-11 04:59N 36°11' W 005°24'0 0.0
2018-Feb-11 04:29N 36°11' W 005°24'0 0.0
2018-Feb-11 03:59N 36°11' W 005°24'0 0.0
2018-Feb-11 03:29N 36°11' W 005°24'0 0.0
2018-Feb-11 02:59N 36°11' W 005°24'0 0.0
2018-Feb-11 02:20N 36°11' W 005°24'0 0.0
2018-Feb-11 01:59N 36°11' W 005°24'0 0.0
2018-Feb-11 01:29N 36°11' W 005°24'0 0.0
2018-Feb-11 00:59N 36°11' W 005°24'0 0.0
2018-Feb-11 00:29N 36°11' W 005°24'0 0.0
2018-Feb-10 23:29N 36°11' W 005°24'0 0.0
2018-Feb-10 22:53N 36°11' W 005°24'0 0.0
2018-Feb-10 22:29N 36°11' W 005°24'0 0.0
2018-Feb-10 21:58N 36°11' W 005°24'0 0.0
2018-Feb-10 21:28N 36°11' W 005°24'0 0.0
2018-Feb-10 20:58N 36°11' W 005°24'0 0.0
2018-Feb-10 20:10N 36°11' W 005°24'0 0.0
2018-Feb-10 19:55N 36°11' W 005°24'0 0.0
2018-Feb-10 18:34N 36°11' W 005°24'0 0.0
2018-Feb-10 18:28N 36°11' W 005°24'0 0.0
2018-Feb-10 17:28N 36°11' W 005°24'0 0.0
2018-Feb-10 16:49N 36°11' W 005°24'0 0.0
2018-Feb-10 16:28N 36°11' W 005°24'0 0.0
2018-Feb-10 15:58N 36°11' W 005°24'0 0.0
2018-Feb-10 15:28N 36°11' W 005°24'0 0.0
2018-Feb-10 14:55N 36°11' W 005°24'0 0.0
2018-Feb-10 14:28N 36°11' W 005°24'0 0.0
2018-Feb-10 13:58N 36°11' W 005°24'0 0.0
2018-Feb-10 13:28N 36°11' W 005°24'0 0.0
2018-Feb-10 12:55N 36°11' W 005°24'0 0.0
2018-Feb-10 12:28N 36°11' W 005°24'0 0.0
2018-Feb-10 11:58N 36°11' W 005°24'  

Dump ship's entire track history